createdAt,value
2022-10-06T00:01:08.425Z,5.20
2022-10-06T00:03:41.770Z,5.85
2022-10-06T00:06:13.171Z,6.10
2022-10-06T00:08:42.364Z,5.93
2022-10-06T00:11:12.254Z,5.13
2022-10-06T00:13:40.716Z,5.00
2022-10-06T00:16:17.315Z,5.60
2022-10-06T00:18:45.117Z,5.50
2022-10-06T00:21:12.517Z,5.13
2022-10-06T00:23:39.349Z,5.72
2022-10-06T00:26:10.812Z,5.13
2022-10-06T00:28:37.919Z,5.30
2022-10-06T00:31:05.005Z,4.47
2022-10-06T00:33:31.913Z,4.68
2022-10-06T00:36:00.827Z,5.15
2022-10-06T00:38:28.950Z,4.75
2022-10-06T00:40:56.975Z,4.82
2022-10-06T00:43:52.869Z,5.03
2022-10-06T00:46:46.458Z,4.93
2022-10-06T00:49:26.667Z,4.88
2022-10-06T00:52:11.447Z,5.30
2022-10-06T00:54:39.241Z,5.40
2022-10-06T00:57:07.000Z,4.78
2022-10-06T00:59:36.115Z,4.70
2022-10-06T01:02:19.087Z,5.00
2022-10-06T01:04:53.015Z,5.35
2022-10-06T01:07:24.310Z,4.65
2022-10-06T01:09:51.212Z,4.47
2022-10-06T01:12:20.152Z,4.82
2022-10-06T01:14:47.757Z,4.88
2022-10-06T01:17:41.634Z,5.22
2022-10-06T01:20:13.885Z,5.13
2022-10-06T01:22:47.878Z,5.85
2022-10-06T01:25:19.012Z,5.60
2022-10-06T01:27:53.716Z,5.00
2022-10-06T01:30:34.090Z,5.65
2022-10-06T01:33:01.059Z,5.22
2022-10-06T01:35:28.154Z,5.10
2022-10-06T01:37:54.940Z,5.03
2022-10-06T01:40:21.802Z,5.43
2022-10-06T01:42:48.735Z,5.38
2022-10-06T01:45:15.721Z,5.43
2022-10-06T01:47:42.465Z,5.32
2022-10-06T01:50:09.814Z,5.70
2022-10-06T01:52:36.973Z,5.07
2022-10-06T01:55:05.340Z,5.28
2022-10-06T01:57:37.717Z,5.82
2022-10-06T02:00:05.194Z,4.95
2022-10-06T02:02:31.946Z,5.22
2022-10-06T02:04:59.394Z,5.68
2022-10-06T02:07:26.237Z,5.68
2022-10-06T02:09:53.160Z,5.53
2022-10-06T02:12:20.139Z,5.40
2022-10-06T02:14:47.014Z,4.93
2022-10-06T02:17:14.218Z,6.47
2022-10-06T02:19:41.170Z,4.70
2022-10-06T02:22:08.061Z,5.13
2022-10-06T02:24:34.930Z,5.38
2022-10-06T02:27:02.107Z,5.32
2022-10-06T02:29:28.923Z,5.88
2022-10-06T02:31:55.878Z,5.68
2022-10-06T02:34:22.909Z,6.18
2022-10-06T02:36:50.065Z,5.30
2022-10-06T02:39:16.963Z,5.30
2022-10-06T02:41:44.380Z,5.20
2022-10-06T02:44:11.781Z,5.25
2022-10-06T02:46:38.686Z,5.25
2022-10-06T02:49:05.782Z,5.70
2022-10-06T02:51:34.280Z,5.05
2022-10-06T02:54:01.089Z,5.30
2022-10-06T02:56:28.083Z,5.35
2022-10-06T02:58:55.650Z,4.97
2022-10-06T03:01:26.097Z,5.13
2022-10-06T03:03:53.891Z,5.40
2022-10-06T03:06:30.423Z,5.20
2022-10-06T03:09:06.216Z,5.15
2022-10-06T03:11:39.151Z,5.20
2022-10-06T03:14:07.712Z,5.40
2022-10-06T03:16:41.445Z,5.05
2022-10-06T03:19:10.142Z,4.82
2022-10-06T03:21:42.504Z,4.60
2022-10-06T03:24:10.807Z,4.65
2022-10-06T03:26:42.126Z,5.20
2022-10-06T03:29:11.892Z,4.75
2022-10-06T03:31:40.574Z,4.80
2022-10-06T03:34:07.922Z,4.82
2022-10-06T03:36:36.403Z,4.18
2022-10-06T03:39:06.176Z,5.15
2022-10-06T03:41:36.940Z,4.20
2022-10-06T03:44:05.018Z,4.60
2022-10-06T03:46:35.536Z,4.30
2022-10-06T03:49:03.073Z,4.30
2022-10-06T03:51:38.868Z,4.45
2022-10-06T03:54:10.561Z,4.00
2022-10-06T03:56:40.975Z,4.13
2022-10-06T03:59:16.465Z,4.65
2022-10-06T04:01:47.445Z,4.30
2022-10-06T04:04:14.896Z,5.35
2022-10-06T04:06:44.444Z,4.15
2022-10-06T04:09:15.636Z,4.50
2022-10-06T04:11:44.866Z,4.15
2022-10-06T04:14:15.686Z,4.32
2022-10-06T04:16:47.293Z,4.57
2022-10-06T04:19:17.163Z,4.65
2022-10-06T04:21:46.940Z,4.50
2022-10-06T04:24:15.821Z,3.80
2022-10-06T04:26:46.446Z,4.00
2022-10-06T04:29:14.900Z,4.00
2022-10-06T04:31:42.932Z,4.07
2022-10-06T04:34:13.357Z,4.22
2022-10-06T04:36:42.620Z,3.80
2022-10-06T04:39:12.402Z,4.03
2022-10-06T04:41:42.694Z,3.92
2022-10-06T04:44:10.350Z,4.15
2022-10-06T04:46:43.165Z,3.63
2022-10-06T04:49:18.897Z,3.93
2022-10-06T04:51:50.450Z,3.90
2022-10-06T04:54:19.443Z,3.90
2022-10-06T04:56:46.618Z,3.80
2022-10-06T04:59:13.784Z,4.05
2022-10-06T05:01:42.290Z,3.50
2022-10-06T05:04:09.168Z,3.28
2022-10-06T05:06:41.435Z,3.42
2022-10-06T05:09:15.708Z,3.55
2022-10-06T05:11:42.801Z,3.40
2022-10-06T05:14:09.805Z,3.90
2022-10-06T05:16:40.029Z,3.28
2022-10-06T05:19:12.583Z,3.67
2022-10-06T05:21:40.298Z,3.42
2022-10-06T05:24:07.812Z,3.78
2022-10-06T05:26:36.240Z,3.70
2022-10-06T05:29:03.926Z,3.60
2022-10-06T05:31:35.166Z,3.35
2022-10-06T05:34:02.220Z,3.33
2022-10-06T05:36:32.608Z,3.75
2022-10-06T05:39:00.646Z,4.13
2022-10-06T05:41:33.357Z,3.80
2022-10-06T05:44:00.562Z,3.65
2022-10-06T05:46:35.551Z,4.13
2022-10-06T05:49:10.475Z,2.90
2022-10-06T05:51:41.107Z,3.35
2022-10-06T05:54:08.410Z,3.58
2022-10-06T05:56:38.509Z,3.78
2022-10-06T05:59:06.383Z,3.00
2022-10-06T06:01:42.541Z,3.97
2022-10-06T06:04:13.207Z,3.03
2022-10-06T06:06:46.197Z,3.42
2022-10-06T06:09:19.426Z,3.05
2022-10-06T06:11:49.864Z,3.65
2022-10-06T06:14:40.811Z,3.25
2022-10-06T06:17:07.909Z,3.10
2022-10-06T06:19:34.883Z,2.83
2022-10-06T06:22:01.689Z,2.80
2022-10-06T06:24:28.727Z,3.38
2022-10-06T06:26:55.598Z,2.70
2022-10-06T06:29:23.248Z,3.15
2022-10-06T06:31:51.084Z,3.53
2022-10-06T06:34:17.980Z,3.45
2022-10-06T06:36:47.503Z,3.63
2022-10-06T06:39:16.107Z,3.13
2022-10-06T06:41:46.278Z,2.95
2022-10-06T06:44:14.136Z,3.00
2022-10-06T06:46:44.853Z,3.00
2022-10-06T06:49:12.938Z,3.17
2022-10-06T06:51:44.123Z,3.65
2022-10-06T06:54:12.933Z,3.38
2022-10-06T06:56:39.920Z,3.25
2022-10-06T06:59:13.219Z,3.65
2022-10-06T07:01:44.567Z,3.53
2022-10-06T07:04:14.799Z,3.72
2022-10-06T07:06:50.539Z,3.25
2022-10-06T07:09:19.564Z,3.38
2022-10-06T07:11:46.487Z,3.50
2022-10-06T07:14:13.258Z,3.03
2022-10-06T07:16:59.267Z,3.40
2022-10-06T07:19:45.055Z,4.00
2022-10-06T07:22:30.618Z,2.70
2022-10-06T07:25:07.982Z,3.08
2022-10-06T07:27:52.988Z,3.42
2022-10-06T07:30:24.042Z,2.83
2022-10-06T07:32:52.674Z,2.80
2022-10-06T07:35:22.250Z,3.20
2022-10-06T07:37:51.254Z,2.90
2022-10-06T07:40:18.723Z,3.78
2022-10-06T07:42:48.681Z,2.13
2022-10-06T07:45:39.069Z,2.80
2022-10-06T07:48:19.494Z,2.15
2022-10-06T07:50:51.915Z,2.70
2022-10-06T07:53:19.776Z,2.60
2022-10-06T07:55:47.845Z,2.50
2022-10-06T07:58:21.237Z,2.13
2022-10-06T08:00:48.996Z,2.63
2022-10-06T08:03:18.159Z,2.00
2022-10-06T08:05:56.846Z,2.47
2022-10-06T08:08:24.127Z,3.03
2022-10-06T08:10:58.299Z,2.20
2022-10-06T08:13:26.814Z,2.22
2022-10-06T08:15:56.601Z,2.17
2022-10-06T08:18:45.590Z,2.40
2022-10-06T08:21:19.528Z,2.20
2022-10-06T08:23:49.311Z,2.20
2022-10-06T08:26:19.153Z,1.98
2022-10-06T08:28:52.190Z,2.10
2022-10-06T08:31:22.333Z,2.05
2022-10-06T08:33:54.387Z,1.92
2022-10-06T08:36:28.336Z,2.78
2022-10-06T08:38:57.744Z,2.17
2022-10-06T08:41:36.394Z,2.05
2022-10-06T08:44:20.996Z,2.13
2022-10-06T08:47:03.054Z,2.20
2022-10-06T08:49:47.010Z,1.95
2022-10-06T08:52:45.216Z,2.17
2022-10-06T08:55:31.037Z,2.45
2022-10-06T08:58:20.043Z,2.42
2022-10-06T09:00:46.978Z,2.55
2022-10-06T09:03:23.972Z,2.38
2022-10-06T09:05:57.108Z,2.05
2022-10-06T09:08:38.085Z,2.33
2022-10-06T09:11:33.405Z,1.83
2022-10-06T09:14:20.760Z,2.20
2022-10-06T09:17:00.831Z,3.30
2022-10-06T09:19:48.639Z,2.17
2022-10-06T09:22:22.693Z,2.08
2022-10-06T09:24:59.510Z,2.88
2022-10-06T09:27:34.188Z,1.70
2022-10-06T09:30:04.555Z,2.50
2022-10-06T09:32:33.269Z,2.25
2022-10-06T09:35:00.379Z,2.55
2022-10-06T09:37:28.381Z,2.80
2022-10-06T09:39:55.941Z,2.13
2022-10-06T09:42:29.747Z,2.20
2022-10-06T09:45:04.989Z,2.55
2022-10-06T09:47:47.373Z,2.60
2022-10-06T09:50:17.622Z,2.42
2022-10-06T09:53:00.839Z,2.10
2022-10-06T09:55:38.883Z,2.28
2022-10-06T09:58:29.673Z,1.90
2022-10-06T10:01:09.610Z,2.15
2022-10-06T10:04:15.506Z,1.77
2022-10-06T10:06:40.580Z,1.95
2022-10-06T10:09:21.903Z,3.42
2022-10-06T10:12:22.053Z,3.53
2022-10-06T10:14:48.991Z,4.63
2022-10-06T10:17:22.204Z,4.50
2022-10-06T10:19:54.696Z,4.38
2022-10-06T10:22:37.194Z,6.03
2022-10-06T10:25:30.522Z,5.78
2022-10-06T10:28:20.057Z,5.95
2022-10-06T10:31:12.784Z,6.55
2022-10-06T10:34:25.873Z,7.20
2022-10-06T10:37:04.581Z,7.32
2022-10-06T10:39:47.069Z,6.53
2022-10-06T10:42:28.660Z,6.18
2022-10-06T10:45:16.286Z,5.15
2022-10-06T10:47:47.724Z,4.50
2022-10-06T10:50:33.260Z,4.00
2022-10-06T10:55:44.587Z,3.47
2022-10-06T10:58:28.829Z,4.78
2022-10-06T11:01:25.638Z,4.80
2022-10-06T11:03:56.894Z,4.40
2022-10-06T11:06:37.213Z,4.10
2022-10-06T11:09:21.130Z,3.97
2022-10-06T11:12:33.606Z,4.40
2022-10-06T11:15:17.031Z,3.75
2022-10-06T11:17:47.189Z,3.53
2022-10-06T11:20:53.304Z,3.90
2022-10-06T11:23:40.689Z,4.13
2022-10-06T11:26:45.223Z,3.80
2022-10-06T11:29:43.129Z,3.00
2022-10-06T11:32:54.387Z,3.00
2022-10-06T11:35:27.816Z,3.20
2022-10-06T11:38:27.250Z,3.17
2022-10-06T11:41:19.645Z,3.10
2022-10-06T11:43:54.811Z,2.88
2022-10-06T11:46:46.532Z,3.00
2022-10-06T11:49:28.701Z,3.60
2022-10-06T11:52:11.607Z,3.50
2022-10-06T11:55:08.922Z,3.38
2022-10-06T12:01:02.423Z,3.53
2022-10-06T12:03:31.047Z,3.85
2022-10-06T12:05:57.975Z,2.90
2022-10-06T12:08:51.181Z,2.88
2022-10-06T12:11:42.448Z,2.92
2022-10-06T12:18:02.886Z,3.20
2022-10-06T12:21:19.988Z,3.45
2022-10-06T12:24:03.297Z,2.90
2022-10-06T12:26:47.100Z,2.88
2022-10-06T12:29:56.044Z,2.90
2022-10-06T12:32:46.534Z,2.22
2022-10-06T12:35:26.358Z,2.15
2022-10-06T12:37:55.580Z,2.78
2022-10-06T12:40:43.863Z,2.50
2022-10-06T12:43:14.405Z,3.38
2022-10-06T12:45:46.252Z,2.28
2022-10-06T12:48:41.527Z,2.50
2022-10-06T12:51:26.854Z,2.10
2022-10-06T12:54:03.772Z,2.47
2022-10-06T12:56:40.784Z,2.03
2022-10-06T12:59:40.145Z,2.42
2022-10-06T13:02:23.818Z,2.35
2022-10-06T13:04:59.374Z,1.88
2022-10-06T13:07:30.988Z,2.38
2022-10-06T13:10:20.344Z,2.15
2022-10-06T13:12:50.374Z,2.53
2022-10-06T13:15:37.041Z,2.90
2022-10-06T13:18:10.850Z,2.95
2022-10-06T13:20:58.185Z,2.28
2022-10-06T13:23:31.433Z,2.10
2022-10-06T13:26:24.754Z,1.90
2022-10-06T13:28:54.702Z,2.15
2022-10-06T13:31:35.246Z,2.53
2022-10-06T13:34:34.950Z,2.20
2022-10-06T13:37:02.451Z,2.20
2022-10-06T13:39:32.725Z,1.92
2022-10-06T13:42:09.615Z,2.22
2022-10-06T13:44:42.290Z,1.77
2022-10-06T13:47:24.719Z,1.90
2022-10-06T13:50:07.019Z,2.10
2022-10-06T13:52:48.698Z,2.00
2022-10-06T13:55:21.820Z,1.70
2022-10-06T13:58:09.436Z,1.58
2022-10-06T14:00:50.180Z,2.50
2022-10-06T14:03:25.882Z,1.92
2022-10-06T14:06:16.796Z,1.25
2022-10-06T14:08:54.823Z,1.50
2022-10-06T14:11:27.566Z,1.70
2022-10-06T14:14:07.466Z,1.52
2022-10-06T14:16:34.543Z,1.60
2022-10-06T14:19:06.624Z,1.95
2022-10-06T14:21:39.785Z,1.67
2022-10-06T14:24:15.998Z,1.55
2022-10-06T14:26:45.401Z,1.60
2022-10-06T14:29:17.941Z,1.40
2022-10-06T14:31:46.540Z,1.23
2022-10-06T14:34:17.555Z,1.50
2022-10-06T14:36:48.890Z,1.65
2022-10-06T14:39:16.148Z,1.40
2022-10-06T14:41:45.439Z,1.50
2022-10-06T14:44:14.959Z,1.77
2022-10-06T14:46:48.122Z,1.50
2022-10-06T14:49:15.779Z,1.42
2022-10-06T14:51:44.896Z,1.98
2022-10-06T14:54:13.003Z,1.70
2022-10-06T14:56:41.569Z,1.52
2022-10-06T14:59:16.979Z,1.65
2022-10-06T15:01:45.801Z,1.58
2022-10-06T15:04:24.685Z,1.45
2022-10-06T15:07:10.149Z,1.65
2022-10-06T15:12:04.417Z,1.55
2022-10-06T15:14:32.275Z,1.50
2022-10-06T15:17:00.324Z,1.65
2022-10-06T15:19:28.084Z,1.52
2022-10-06T15:21:55.036Z,1.60
2022-10-06T15:24:23.819Z,1.40
2022-10-06T15:27:09.644Z,2.85
2022-10-06T15:29:36.804Z,1.90
2022-10-06T15:32:10.919Z,1.92
2022-10-06T15:34:39.375Z,1.83
2022-10-06T15:37:06.541Z,1.80
2022-10-06T15:39:37.377Z,1.67
2022-10-06T15:42:05.181Z,1.40
2022-10-06T15:44:35.992Z,1.50
2022-10-06T15:47:07.280Z,1.40
2022-10-06T15:49:38.467Z,1.85
2022-10-06T15:52:05.919Z,2.30
2022-10-06T15:54:39.747Z,2.38
2022-10-06T15:57:15.032Z,2.20
2022-10-06T15:59:44.960Z,2.67
2022-10-06T16:02:17.993Z,2.35
2022-10-06T16:05:09.667Z,2.53
2022-10-06T16:07:36.832Z,3.00
2022-10-06T16:10:04.145Z,2.63
2022-10-06T16:12:32.765Z,2.03
2022-10-06T16:15:00.123Z,2.20
2022-10-06T16:17:27.085Z,2.25
2022-10-06T16:19:54.038Z,3.08
2022-10-06T16:22:21.953Z,2.10
2022-10-06T16:24:50.222Z,2.17
2022-10-06T16:27:17.191Z,2.72
2022-10-06T16:29:44.210Z,2.67
2022-10-06T16:32:11.173Z,2.88
2022-10-06T16:34:38.343Z,3.03
2022-10-06T16:37:05.566Z,2.65
2022-10-06T16:39:32.528Z,3.60
2022-10-06T16:41:59.413Z,3.38
2022-10-06T16:44:26.534Z,3.20
2022-10-06T16:46:53.424Z,2.92
2022-10-06T16:49:21.245Z,3.05
2022-10-06T16:51:48.272Z,4.30
2022-10-06T16:54:17.501Z,3.58
2022-10-06T16:56:48.004Z,3.38
2022-10-06T16:59:19.183Z,4.13
2022-10-06T17:01:47.910Z,3.30
2022-10-06T17:04:23.345Z,3.75
2022-10-06T17:06:54.790Z,3.72
2022-10-06T17:09:27.565Z,4.03
2022-10-06T17:11:56.262Z,3.90
2022-10-06T17:14:23.482Z,4.63
2022-10-06T17:16:54.118Z,4.15
2022-10-06T17:19:24.437Z,3.72
2022-10-06T17:21:58.215Z,3.95
2022-10-06T17:24:28.411Z,3.80
2022-10-06T17:26:57.197Z,3.97
2022-10-06T17:29:25.036Z,3.90
2022-10-06T17:31:56.342Z,3.75
2022-10-06T17:34:26.558Z,3.63
2022-10-06T17:36:57.802Z,3.95
2022-10-06T17:39:24.731Z,4.85
2022-10-06T17:41:53.648Z,4.95
2022-10-06T17:44:26.398Z,4.68
2022-10-06T17:46:57.396Z,4.32
2022-10-06T17:49:26.378Z,4.35
2022-10-06T17:51:55.255Z,4.15
2022-10-06T17:54:25.060Z,4.85
2022-10-06T17:56:56.077Z,4.60
2022-10-06T17:59:30.839Z,4.57
2022-10-06T18:02:03.021Z,4.18
2022-10-06T18:04:30.849Z,5.18
2022-10-06T18:06:57.920Z,4.50
2022-10-06T18:09:25.156Z,4.72
2022-10-06T18:11:57.818Z,5.40
2022-10-06T18:14:32.372Z,5.10
2022-10-06T18:17:02.299Z,5.35
2022-10-06T18:19:34.415Z,5.70
2022-10-06T18:22:10.292Z,5.93
2022-10-06T18:24:39.007Z,7.10
2022-10-06T18:27:08.421Z,12.27
2022-10-06T18:29:38.437Z,14.25
2022-10-06T18:37:42.161Z,9.27
2022-10-06T18:40:11.170Z,8.82
2022-10-06T18:42:39.477Z,8.95
2022-10-06T18:45:26.992Z,7.80
2022-10-06T18:48:12.581Z,7.97
2022-10-06T18:50:40.275Z,10.48
2022-10-06T18:53:07.493Z,7.47
2022-10-06T18:55:35.014Z,6.88
2022-10-06T18:58:03.392Z,6.75
2022-10-06T19:00:31.225Z,6.50
2022-10-06T19:02:58.340Z,6.80
2022-10-06T19:05:25.474Z,7.20
2022-10-06T19:07:54.019Z,8.25
2022-10-06T19:10:21.158Z,7.43
2022-10-06T19:12:48.500Z,7.45
2022-10-06T19:15:20.438Z,9.38
2022-10-06T19:17:49.571Z,8.63
2022-10-06T19:20:18.481Z,7.93
2022-10-06T19:22:46.123Z,8.32
2022-10-06T19:25:14.899Z,7.93
2022-10-06T19:27:44.441Z,8.95
2022-10-06T19:30:19.634Z,8.35
2022-10-06T19:32:50.998Z,7.65
2022-10-06T19:35:19.397Z,8.25
2022-10-06T19:37:47.526Z,9.45
2022-10-06T19:40:17.065Z,9.85
2022-10-06T19:42:48.711Z,8.82
2022-10-06T19:45:21.234Z,9.35
2022-10-06T19:47:55.097Z,11.13
2022-10-06T19:50:28.665Z,11.18
2022-10-06T19:53:01.421Z,10.65
2022-10-06T19:55:33.967Z,11.82
2022-10-06T19:58:01.719Z,11.20
2022-10-06T20:00:30.821Z,9.50
2022-10-06T20:03:02.727Z,10.23
2022-10-06T20:05:31.045Z,9.90
2022-10-06T20:08:02.198Z,8.30
2022-10-06T20:10:33.725Z,13.00
2022-10-06T20:13:03.398Z,11.40
2022-10-06T20:15:37.108Z,13.02
2022-10-06T20:18:08.624Z,12.23
2022-10-06T20:20:36.178Z,9.68
2022-10-06T20:23:03.469Z,9.98
2022-10-06T20:25:34.234Z,9.85
2022-10-06T20:28:05.433Z,9.98
2022-10-06T20:30:36.576Z,9.52
2022-10-06T20:33:04.217Z,9.00
2022-10-06T20:35:33.532Z,8.90
2022-10-06T20:38:01.781Z,10.52
2022-10-06T20:40:43.400Z,10.77
2022-10-06T20:43:10.880Z,10.48
2022-10-06T20:45:37.867Z,10.88
2022-10-06T20:48:05.327Z,9.95
2022-10-06T20:50:32.444Z,10.23
2022-10-06T20:52:59.631Z,9.82
2022-10-06T20:55:27.336Z,9.43
2022-10-06T20:57:55.832Z,10.00
2022-10-06T21:00:23.161Z,9.82
2022-10-06T21:02:50.917Z,11.05
2022-10-06T21:05:18.340Z,10.45
2022-10-06T21:07:46.580Z,11.43
2022-10-06T21:10:14.419Z,10.88
2022-10-06T21:12:44.858Z,12.10
2022-10-06T21:15:12.252Z,10.95
2022-10-06T21:17:42.471Z,10.18
2022-10-06T21:20:10.070Z,12.38
2022-10-06T21:22:37.028Z,11.65
2022-10-06T21:25:04.461Z,12.10
2022-10-06T21:27:31.519Z,11.75
2022-10-06T21:29:58.869Z,11.82
2022-10-06T21:32:26.153Z,11.20
2022-10-06T21:34:55.938Z,11.88
2022-10-06T21:37:23.087Z,11.65
2022-10-06T21:39:50.271Z,12.05
2022-10-06T21:42:17.430Z,27.08
2022-10-06T21:44:44.566Z,12.85
2022-10-06T21:47:11.769Z,11.18
2022-10-06T21:49:38.735Z,11.40
2022-10-06T21:52:05.707Z,11.68
2022-10-06T21:54:33.102Z,11.15
2022-10-06T21:57:00.368Z,11.65
2022-10-06T21:59:27.178Z,11.38
2022-10-06T22:01:54.321Z,11.80
2022-10-06T22:04:21.224Z,11.48
2022-10-06T22:06:50.892Z,10.40
2022-10-06T22:09:20.534Z,10.35
2022-10-06T22:11:48.135Z,11.60
2022-10-06T22:14:18.522Z,10.40
2022-10-06T22:16:46.324Z,11.00
2022-10-06T22:19:16.350Z,11.70
2022-10-06T22:21:47.900Z,11.88
2022-10-06T22:24:24.073Z,11.77
2022-10-06T22:26:50.912Z,11.40
2022-10-06T22:29:20.112Z,12.35
2022-10-06T22:31:49.144Z,11.77
2022-10-06T22:34:20.352Z,11.73
2022-10-06T22:36:47.759Z,13.77
2022-10-06T22:39:15.058Z,11.98
2022-10-06T22:41:42.115Z,13.32
2022-10-06T22:44:09.308Z,13.43
2022-10-06T22:46:37.938Z,12.15
2022-10-06T22:49:05.673Z,12.43
2022-10-06T22:51:33.135Z,12.05
2022-10-06T22:54:01.183Z,11.80
2022-10-06T22:56:31.758Z,12.80
2022-10-06T22:59:00.407Z,11.88
2022-10-06T23:01:29.251Z,12.68
2022-10-06T23:03:56.999Z,12.77
2022-10-06T23:06:24.924Z,11.55
2022-10-06T23:08:52.356Z,13.80
2022-10-06T23:11:21.636Z,13.02
2022-10-06T23:13:50.504Z,11.80
2022-10-06T23:16:19.708Z,12.75
2022-10-06T23:18:48.069Z,12.07
2022-10-06T23:21:21.714Z,13.00
2022-10-06T23:23:52.683Z,12.77
2022-10-06T23:26:21.490Z,13.38
2022-10-06T23:28:57.748Z,13.63
2022-10-06T23:31:26.513Z,12.73
2022-10-06T23:33:54.910Z,13.32
2022-10-06T23:36:21.824Z,13.15
2022-10-06T23:38:49.129Z,14.13
2022-10-06T23:41:16.661Z,12.60
2022-10-06T23:43:43.969Z,13.35
2022-10-06T23:46:11.730Z,14.02
2022-10-06T23:48:39.143Z,13.35
2022-10-06T23:51:12.663Z,14.57
2022-10-06T23:53:40.357Z,14.20
2022-10-06T23:56:08.143Z,14.40
2022-10-06T23:58:35.342Z,12.63
